Cap Ricarda — A8PX6 — position and weather

sailwx.info

Track history (hours):
 
Tides and Currents Weather Stations Pressure Air Temp Water Temp Dewpoint Dewpoint Depression Visibility Wind Speed Wind Dir Waves Ship Positions

Cap Ricarda

Last reported at 2018-Feb-16 21:10 UTC. Time now 2018-Feb-23 08:36 UTC.
Position N 19°13' W 096°08'.

Length 225 m; draft 11.8 m.

Type: Ship. MMSI: 636017352.

Date/timePositionNaut miles runAvg speedWind from/ knotsBaromVisibWave heightAir tempDewpointWater temp
2018-Feb-16 21:10N 19°13' W 096°08'0 0.0
2018-Feb-16 20:58N 19°13' W 096°08'0 0.0
2018-Feb-16 20:30N 19°13' W 096°08'0 0.0
2018-Feb-16 20:00N 19°13' W 096°08'0 0.0
2018-Feb-16 19:30N 19°13' W 096°08'0 0.0
2018-Feb-16 18:57N 19°13' W 096°08'0 0.0
2018-Feb-16 18:30N 19°13' W 096°08'0 0.0
2018-Feb-16 17:53N 19°13' W 096°08'0 0.0
2018-Feb-16 17:26N 19°13' W 096°08'0 0.0
2018-Feb-16 16:59N 19°13' W 096°08'0 0.0
2018-Feb-16 16:20N 19°13' W 096°08'0 0.0
2018-Feb-16 15:56N 19°13' W 096°08'0 0.0
2018-Feb-16 15:28N 19°13' W 096°08'0 0.0
2018-Feb-16 14:59N 19°13' W 096°08'0 0.0
2018-Feb-16 14:29N 19°13' W 096°08'1 3.0
2018-Feb-16 13:59N 19°12' W 096°06'3 7.2
2018-Feb-16 13:30N 19°12' W 096°03'3 6.3
2018-Feb-16 13:00N 19°14' W 096°00'5 8.8
2018-Feb-16 12:29N 19°18' W 096°00'4 8.3
2018-Feb-16 11:59N 19°22' W 095°58'8 5.8
2018-Feb-16 10:39N 19°27' W 095°52'  
2018-Feb-07 09:29N 40°10' W 030°09'817.2
2018-Feb-07 09:00N 40°12' W 029°58'1217.5
2018-Feb-07 08:18N 40°16' W 029°43'  
Track history (hours):
 
Tides and Currents Weather Stations Pressure Air Temp Water Temp Dewpoint Dewpoint Depression Visibility Wind Speed Wind Dir Waves Ship Positions

Cap Ricarda

Last reported at 2018-Feb-16 21:10 UTC. Time now 2018-Feb-23 08:36 UTC.
Position N 19°13' W 096°08'.

Length 225 m; draft 11.8 m.

Type: Ship. MMSI: 636017352.

Date/timePositionNaut miles runAvg speedWind from/ knotsBaromVisibWave heightAir tempDewpointWater temp
2018-Feb-16 21:10N 19°13' W 096°08'0 0.0
2018-Feb-16 20:58N 19°13' W 096°08'0 0.0
2018-Feb-16 20:30N 19°13' W 096°08'0 0.0
2018-Feb-16 20:00N 19°13' W 096°08'0 0.0
2018-Feb-16 19:30N 19°13' W 096°08'0 0.0
2018-Feb-16 18:57N 19°13' W 096°08'0 0.0
2018-Feb-16 18:30N 19°13' W 096°08'0 0.0
2018-Feb-16 17:53N 19°13' W 096°08'0 0.0
2018-Feb-16 17:26N 19°13' W 096°08'0 0.0
2018-Feb-16 16:59N 19°13' W 096°08'0 0.0
2018-Feb-16 16:20N 19°13' W 096°08'0 0.0
2018-Feb-16 15:56N 19°13' W 096°08'0 0.0
2018-Feb-16 15:28N 19°13' W 096°08'0 0.0
2018-Feb-16 14:59N 19°13' W 096°08'0 0.0
2018-Feb-16 14:29N 19°13' W 096°08'1 3.0
2018-Feb-16 13:59N 19°12' W 096°06'3 7.2
2018-Feb-16 13:30N 19°12' W 096°03'3 6.3
2018-Feb-16 13:00N 19°14' W 096°00'5 8.8
2018-Feb-16 12:29N 19°18' W 096°00'4 8.3
2018-Feb-16 11:59N 19°22' W 095°58'8 5.8
2018-Feb-16 10:39N 19°27' W 095°52'  
2018-Feb-07 09:29N 40°10' W 030°09'817.2
2018-Feb-07 09:00N 40°12' W 029°58'1217.5
2018-Feb-07 08:18N 40°16' W 029°43'  

Dump ship's entire track history